Time;durP1;ratioP1;P1;durP2;ratioP2;P2;SDS_P1;SDS_P2;PMS_P1;PMS_P2;Temp;Humidity;BMP_temperature;BMP_pressure;BME280_temperature;BME280_humidity;BME280_pressure;Samples;Min_cycle;Max_cycle;Signal;HPM_P1;HPM_P2
2021/08/24 00:01:40;;;;;;;3.40;2.45;;;;;;;;;;5068296;28;20239;-71
2021/08/24 00:04:05;;;;;;;3.88;2.20;;;;;;;;;;5051821;28;20196;-71
2021/08/24 00:06:31;;;;;;;4.63;2.72;;;;;;;;;;5066923;28;20184;-71
2021/08/24 00:08:56;;;;;;;6.45;3.42;;;;;;;;;;5067378;28;20566;-69
2021/08/24 00:11:21;;;;;;;4.82;2.22;;;;;;;;;;5070340;28;20197;-71
2021/08/24 00:13:46;;;;;;;3.60;2.40;;;;;;;;;;5070072;28;20218;-72
2021/08/24 00:16:14;;;;;;;3.17;2.33;;;;;;;;;;5072089;28;20184;-70
2021/08/24 00:18:39;;;;;;;3.58;2.47;;;;;;;;;;5071057;28;20214;-71
2021/08/24 00:21:04;;;;;;;4.57;2.10;;;;;;;;;;5068360;28;20280;-70
2021/08/24 00:23:30;;;;;;;3.83;2.08;;;;;;;;;;5072297;28;20209;-71
2021/08/24 00:25:56;;;;;;;3.33;2.17;;;;;;;;;;5071540;28;20213;-69
2021/08/24 00:28:21;;;;;;;3.95;2.47;;;;;;;;;;5069901;28;20173;-71
2021/08/24 00:30:46;;;;;;;3.92;2.47;;;;;;;;;;5068771;28;20273;-71
2021/08/24 00:33:12;;;;;;;5.07;2.90;;;;;;;;;;5072447;28;20240;-68
2021/08/24 00:35:39;;;;;;;3.05;2.13;;;;;;;;;;5071636;28;20215;-71
2021/08/24 00:38:08;;;;;;;4.97;2.40;;;;;;;;;;5067098;28;20649;-71
2021/08/24 00:40:33;;;;;;;4.63;2.47;;;;;;;;;;5066261;28;20214;-72
2021/08/24 00:42:58;;;;;;;4.70;2.70;;;;;;;;;;5070958;28;20606;-71
2021/08/24 00:45:23;;;;;;;3.25;2.22;;;;;;;;;;5069836;28;20628;-71
2021/08/24 00:47:49;;;;;;;4.38;2.47;;;;;;;;;;5070824;28;20185;-71
2021/08/24 00:50:17;;;;;;;3.13;1.90;;;;;;;;;;5062569;28;20243;-72
2021/08/24 00:52:42;;;;;;;4.60;3.53;;;;;;;;;;5066560;28;20212;-71
2021/08/24 00:55:08;;;;;;;2.92;2.20;;;;;;;;;;5071067;28;20173;-71
2021/08/24 00:57:33;;;;;;;5.63;2.60;;;;;;;;;;5066108;28;20677;-72
2021/08/24 00:59:58;;;;;;;3.92;2.38;;;;;;;;;;5063357;28;20195;-71
2021/08/24 01:02:25;;;;;;;2.95;2.28;;;;;;;;;;5068808;28;20607;-71
2021/08/24 01:04:51;;;;;;;4.80;2.35;;;;;;;;;;5069216;28;20184;-70
2021/08/24 01:07:31;;;;;;;8.57;2.67;;;;;;;;;;5070427;28;20193;-71
2021/08/24 01:10:15;;;;;;;2.97;2.33;;;;;;;;;;5068070;28;20605;-71
2021/08/24 01:12:52;;;;;;;3.22;2.72;;;;;;;;;;5068763;28;20735;-71
2021/08/24 01:15:20;;;;;;;4.35;3.13;;;;;;;;;;5071252;28;20188;-71
2021/08/24 01:18:01;;;;;;;2.95;2.53;;;;;;;;;;5066360;28;20226;-69
2021/08/24 01:20:29;;;;;;;3.70;2.40;;;;;;;;;;5047422;28;20209;-71
2021/08/24 01:22:57;;;;;;;5.78;3.58;;;;;;;;;;5067460;28;20185;-71
2021/08/24 01:25:29;;;;;;;4.88;2.70;;;;;;;;;;5070459;28;20177;-68
2021/08/24 01:27:54;;;;;;;6.47;3.40;;;;;;;;;;5070436;28;20191;-71
2021/08/24 01:30:26;;;;;;;4.68;3.15;;;;;;;;;;5066999;28;20232;-70
2021/08/24 01:33:07;;;;;;;5.03;3.10;;;;;;;;;;5071071;28;20284;-71
2021/08/24 01:35:50;;;;;;;4.50;2.90;;;;;;;;;;5070109;28;20177;-71
2021/08/24 01:38:23;;;;;;;4.50;3.42;;;;;;;;;;5063047;28;20188;-71
2021/08/24 01:40:54;;;;;;;4.75;2.83;;;;;;;;;;5069729;28;20205;-70
2021/08/24 01:43:22;;;;;;;5.65;3.40;;;;;;;;;;5069899;28;20266;-71
2021/08/24 01:45:49;;;;;;;4.63;3.33;;;;;;;;;;5071420;28;20219;-71
2021/08/24 01:48:24;;;;;;;4.90;3.60;;;;;;;;;;5069369;28;20188;-71
2021/08/24 01:50:53;;;;;;;6.47;3.53;;;;;;;;;;5061268;28;21014;-70
2021/08/24 01:53:31;;;;;;;5.78;3.97;;;;;;;;;;5057275;28;20204;-70
2021/08/24 01:55:58;;;;;;;5.97;3.88;;;;;;;;;;5065570;28;20207;-69
2021/08/24 01:58:29;;;;;;;5.38;3.45;;;;;;;;;;5062746;28;20638;-69
2021/08/24 02:00:56;;;;;;;6.13;3.80;;;;;;;;;;5063938;28;20201;-71
2021/08/24 02:03:36;;;;;;;7.65;4.25;;;;;;;;;;5050576;28;20224;-71
2021/08/24 02:06:11;;;;;;;8.50;3.65;;;;;;;;;;5067628;28;20275;-70
2021/08/24 02:08:38;;;;;;;8.50;4.25;;;;;;;;;;5067377;28;20688;-71
2021/08/24 02:11:05;;;;;;;6.07;3.95;;;;;;;;;;5064521;28;20603;-70
2021/08/24 02:13:34;;;;;;;4.22;3.42;;;;;;;;;;5067849;28;20201;-71
2021/08/24 02:16:01;;;;;;;8.13;4.60;;;;;;;;;;5069935;28;20177;-71
2021/08/24 02:18:30;;;;;;;6.85;4.25;;;;;;;;;;5069042;28;20226;-71
2021/08/24 02:20:59;;;;;;;6.00;4.05;;;;;;;;;;5049229;28;20200;-70
2021/08/24 02:23:26;;;;;;;6.15;3.88;;;;;;;;;;5061085;28;20639;-71
2021/08/24 02:25:53;;;;;;;6.88;4.10;;;;;;;;;;5070282;28;20185;-70
2021/08/24 02:28:21;;;;;;;8.30;4.75;;;;;;;;;;5068819;28;20646;-71
2021/08/24 02:30:48;;;;;;;7.20;4.72;;;;;;;;;;5081972;22;20315;-71
2021/08/24 02:33:13;;;;;;;12.30;4.22;;;;;;;;;;5066357;28;20600;-70
2021/08/24 02:35:42;;;;;;;5.72;4.10;;;;;;;;;;5066730;28;20173;-71
2021/08/24 02:38:10;;;;;;;6.47;4.13;;;;;;;;;;5068822;28;20177;-71
2021/08/24 02:40:54;;;;;;;7.60;4.80;;;;;;;;;;5068399;28;20205;-70
2021/08/24 02:43:23;;;;;;;6.68;4.68;;;;;;;;;;5068848;28;20199;-70
2021/08/24 02:46:12;;;;;;;5.60;4.60;;;;;;;;;;5069382;28;20643;-70
2021/08/24 02:48:38;;;;;;;6.95;4.28;;;;;;;;;;5065125;28;20709;-71
2021/08/24 02:51:04;;;;;;;5.10;4.60;;;;;;;;;;5067819;28;20284;-70
2021/08/24 02:53:30;;;;;;;4.75;4.30;;;;;;;;;;5069558;28;20300;-71
2021/08/24 02:55:56;;;;;;;5.85;5.07;;;;;;;;;;5067681;28;20552;-70
2021/08/24 02:58:21;;;;;;;7.20;4.35;;;;;;;;;;5063148;28;20244;-70
2021/08/24 03:00:49;;;;;;;6.83;5.47;;;;;;;;;;5064040;28;20223;-70
2021/08/24 03:03:15;;;;;;;5.80;4.93;;;;;;;;;;5068101;28;20429;-71
2021/08/24 03:05:40;;;;;;;6.70;4.53;;;;;;;;;;5067959;28;20188;-70
2021/08/24 03:08:06;;;;;;;9.82;4.85;;;;;;;;;;5049296;28;20299;-70
2021/08/24 03:10:34;;;;;;;8.38;5.00;;;;;;;;;;5069915;28;20615;-72
2021/08/24 03:13:08;;;;;;;7.80;4.80;;;;;;;;;;5074136;28;20201;-70
2021/08/24 03:15:59;;;;;;;8.50;4.82;;;;;;;;;;5069614;28;20170;-70
2021/08/24 03:18:34;;;;;;;6.78;4.30;;;;;;;;;;5067065;28;20608;-70
2021/08/24 03:21:01;;;;;;;6.78;5.18;;;;;;;;;;5073228;28;20199;-70
2021/08/24 03:23:28;;;;;;;9.00;5.05;;;;;;;;;;5073741;28;20173;-70
2021/08/24 03:25:53;;;;;;;7.85;5.65;;;;;;;;;;5071256;28;20188;-70
2021/08/24 03:28:20;;;;;;;9.02;5.95;;;;;;;;;;5073397;28;20168;-70
2021/08/24 03:30:45;;;;;;;8.43;5.75;;;;;;;;;;5072015;28;20243;-70
2021/08/24 03:33:11;;;;;;;7.95;6.10;;;;;;;;;;5071341;28;21769;-70
2021/08/24 03:35:36;;;;;;;6.63;5.38;;;;;;;;;;5072421;28;20543;-70
2021/08/24 03:38:01;;;;;;;7.30;5.40;;;;;;;;;;5071216;28;20177;-70
2021/08/24 03:40:26;;;;;;;7.30;5.82;;;;;;;;;;5069194;28;20200;-70
2021/08/24 03:42:53;;;;;;;8.65;5.85;;;;;;;;;;5072631;28;20258;-70
2021/08/24 03:45:18;;;;;;;8.48;6.05;;;;;;;;;;5071793;28;20208;-71
2021/08/24 03:47:43;;;;;;;10.57;7.07;;;;;;;;;;5071748;28;20204;-71
2021/08/24 03:50:08;;;;;;;10.50;6.85;;;;;;;;;;5073431;28;20410;-71
2021/08/24 03:52:34;;;;;;;12.88;7.07;;;;;;;;;;5056177;28;20197;-71
2021/08/24 03:54:59;;;;;;;7.70;5.97;;;;;;;;;;5080433;28;20176;-71
2021/08/24 03:57:24;;;;;;;9.43;6.88;;;;;;;;;;5081830;28;20195;-71
2021/08/24 03:59:52;;;;;;;34.75;9.05;;;;;;;;;;5063450;28;20189;-71
2021/08/24 04:02:17;;;;;;;11.25;6.55;;;;;;;;;;5068875;28;20237;-71
2021/08/24 04:04:43;;;;;;;13.15;7.85;;;;;;;;;;5070306;28;20688;-71
2021/08/24 04:07:08;;;;;;;9.73;7.50;;;;;;;;;;5070441;28;20604;-70
2021/08/24 04:09:33;;;;;;;10.23;7.57;;;;;;;;;;5047505;28;20183;-70
2021/08/24 04:11:58;;;;;;;14.32;7.80;;;;;;;;;;5070212;28;20885;-70
2021/08/24 04:14:23;;;;;;;12.60;8.13;;;;;;;;;;5053495;28;20219;-71
2021/08/24 04:16:48;;;;;;;12.52;8.63;;;;;;;;;;5053406;28;20173;-71
2021/08/24 04:19:14;;;;;;;10.88;7.93;;;;;;;;;;5070818;28;20216;-71
2021/08/24 04:21:40;;;;;;;13.23;8.75;;;;;;;;;;5072360;28;20199;-71
2021/08/24 04:24:06;;;;;;;12.50;8.00;;;;;;;;;;5070392;28;20559;-71
2021/08/24 04:26:31;;;;;;;12.68;8.70;;;;;;;;;;5068670;28;20300;-70
2021/08/24 04:28:56;;;;;;;18.92;8.68;;;;;;;;;;5068216;28;20184;-71
2021/08/24 04:31:22;;;;;;;15.13;9.07;;;;;;;;;;5053542;28;20261;-71
2021/08/24 04:33:47;;;;;;;13.98;8.75;;;;;;;;;;5072882;28;20410;-71
2021/08/24 04:36:12;;;;;;;12.85;9.57;;;;;;;;;;5070358;28;21763;-71
2021/08/24 04:38:37;;;;;;;14.48;9.10;;;;;;;;;;5064975;28;20248;-72
2021/08/24 04:41:03;;;;;;;16.77;9.02;;;;;;;;;;5071296;28;20287;-71
2021/08/24 04:43:28;;;;;;;12.80;9.45;;;;;;;;;;5048857;28;20217;-71
2021/08/24 04:45:53;;;;;;;15.77;10.07;;;;;;;;;;5069349;28;20242;-71
2021/08/24 04:48:19;;;;;;;14.90;9.63;;;;;;;;;;5070027;28;20668;-72
2021/08/24 04:50:44;;;;;;;17.02;9.73;;;;;;;;;;5068615;28;20200;-71
2021/08/24 04:53:10;;;;;;;11.25;9.40;;;;;;;;;;5070645;28;20201;-71
2021/08/24 04:55:35;;;;;;;16.55;9.60;;;;;;;;;;5071029;28;20283;-71
2021/08/24 04:58:03;;;;;;;13.23;9.40;;;;;;;;;;5069730;28;20181;-71
2021/08/24 05:00:29;;;;;;;12.82;8.95;;;;;;;;;;5062425;28;20202;-71
2021/08/24 05:02:54;;;;;;;15.88;9.27;;;;;;;;;;5067606;28;20222;-71
2021/08/24 05:05:19;;;;;;;13.60;9.68;;;;;;;;;;5069758;28;20181;-71
2021/08/24 05:07:44;;;;;;;13.88;9.02;;;;;;;;;;5071735;28;20200;-71
2021/08/24 05:10:09;;;;;;;12.77;8.55;;;;;;;;;;5068909;28;20196;-71
2021/08/24 05:12:35;;;;;;;12.82;8.95;;;;;;;;;;5067001;28;20204;-71
2021/08/24 05:15:00;;;;;;;13.30;9.02;;;;;;;;;;5068595;28;20306;-70
2021/08/24 05:17:25;;;;;;;13.45;8.27;;;;;;;;;;5068939;28;20479;-71
2021/08/24 05:19:50;;;;;;;12.23;8.70;;;;;;;;;;5071137;28;20177;-71
2021/08/24 05:22:15;;;;;;;9.80;7.57;;;;;;;;;;5069321;28;20192;-71
2021/08/24 05:24:40;;;;;;;12.98;8.65;;;;;;;;;;5069661;28;20176;-71
2021/08/24 05:27:06;;;;;;;12.90;8.82;;;;;;;;;;5052875;28;20658;-72
2021/08/24 05:29:32;;;;;;;14.90;8.52;;;;;;;;;;5053140;28;20181;-72
2021/08/24 05:31:57;;;;;;;12.88;8.18;;;;;;;;;;5068380;28;20580;-71
2021/08/24 05:34:22;;;;;;;12.05;9.48;;;;;;;;;;5070647;28;20541;-71
2021/08/24 05:36:47;;;;;;;14.38;7.00;;;;;;;;;;5069899;28;20227;-71
2021/08/24 05:39:12;;;;;;;14.90;7.80;;;;;;;;;;5070833;28;20213;-71
2021/08/24 05:41:38;;;;;;;12.48;8.18;;;;;;;;;;5070183;28;20249;-71
2021/08/24 05:44:04;;;;;;;11.45;7.47;;;;;;;;;;5071176;28;20226;-72
2021/08/24 05:46:29;;;;;;;9.10;7.10;;;;;;;;;;5068330;28;20223;-71
2021/08/24 05:48:54;;;;;;;11.38;7.70;;;;;;;;;;5066822;28;20600;-71
2021/08/24 05:51:20;;;;;;;10.35;6.90;;;;;;;;;;5069071;28;20203;-71
2021/08/24 05:53:46;;;;;;;14.38;8.05;;;;;;;;;;5070157;28;20212;-71
2021/08/24 05:56:13;;;;;;;11.75;7.45;;;;;;;;;;5067801;28;20177;-71
2021/08/24 05:58:38;;;;;;;16.27;6.80;;;;;;;;;;5048646;28;20701;-71
2021/08/24 06:01:04;;;;;;;12.02;7.30;;;;;;;;;;5059740;28;20204;-71
2021/08/24 06:03:29;;;;;;;15.13;7.43;;;;;;;;;;5064832;28;20185;-71
2021/08/24 06:05:54;;;;;;;8.45;5.90;;;;;;;;;;5067004;28;20187;-71
2021/08/24 06:08:19;;;;;;;10.82;6.00;;;;;;;;;;5065898;28;20594;-71
2021/08/24 06:10:45;;;;;;;8.48;5.70;;;;;;;;;;5069463;28;20203;-71
2021/08/24 06:13:10;;;;;;;15.15;5.90;;;;;;;;;;5069096;28;20236;-71
2021/08/24 06:15:36;;;;;;;14.02;6.90;;;;;;;;;;5065806;28;20191;-72
2021/08/24 06:18:01;;;;;;;13.68;6.22;;;;;;;;;;5066974;28;20271;-71
2021/08/24 06:20:26;;;;;;;9.52;5.72;;;;;;;;;;5069561;28;20193;-72
2021/08/24 06:22:51;;;;;;;9.27;5.97;;;;;;;;;;5068491;28;20229;-71
2021/08/24 06:25:17;;;;;;;9.70;6.38;;;;;;;;;;5069558;28;20196;-71
2021/08/24 06:27:42;;;;;;;10.20;6.13;;;;;;;;;;5069105;28;20169;-72
2021/08/24 06:30:08;;;;;;;11.68;7.05;;;;;;;;;;5062092;28;20188;-71
2021/08/24 06:32:35;;;;;;;8.80;5.68;;;;;;;;;;5067148;28;20577;-71
2021/08/24 06:35:00;;;;;;;10.30;5.68;;;;;;;;;;5050829;28;20645;-71
2021/08/24 06:37:26;;;;;;;8.55;6.20;;;;;;;;;;5068401;28;20318;-71
2021/08/24 06:39:51;;;;;;;10.52;5.70;;;;;;;;;;5050753;28;20192;-71
2021/08/24 06:42:16;;;;;;;7.43;4.90;;;;;;;;;;5068097;28;20208;-71
2021/08/24 06:44:41;;;;;;;7.45;5.13;;;;;;;;;;5068312;28;20188;-72
2021/08/24 06:47:07;;;;;;;8.50;5.60;;;;;;;;;;5072083;28;20192;-71
2021/08/24 06:49:32;;;;;;;8.40;5.53;;;;;;;;;;5074100;28;20227;-72
2021/08/24 06:51:59;;;;;;;7.13;5.10;;;;;;;;;;5068396;28;20265;-72
2021/08/24 06:54:24;;;;;;;9.68;6.05;;;;;;;;;;5056080;28;20420;-68
2021/08/24 06:56:49;;;;;;;8.73;5.35;;;;;;;;;;5070713;28;20268;-69
2021/08/24 06:59:16;;;;;;;7.97;4.83;;;;;;;;;;5067862;28;20230;-69
2021/08/24 07:01:41;;;;;;;9.30;4.78;;;;;;;;;;5070980;28;20476;-69
2021/08/24 07:04:06;;;;;;;7.95;4.50;;;;;;;;;;5054044;28;20197;-69
2021/08/24 07:06:32;;;;;;;9.43;4.53;;;;;;;;;;5070107;28;20184;-70
2021/08/24 07:08:57;;;;;;;8.18;4.15;;;;;;;;;;5072807;28;20181;-70
2021/08/24 07:11:26;;;;;;;8.43;4.95;;;;;;;;;;5069683;28;20192;-69
2021/08/24 07:13:52;;;;;;;9.10;4.50;;;;;;;;;;5070451;28;20193;-70
2021/08/24 07:16:17;;;;;;;8.13;4.32;;;;;;;;;;5048124;28;20192;-69
2021/08/24 07:18:42;;;;;;;7.20;4.20;;;;;;;;;;5073448;28;20181;-69
2021/08/24 07:21:07;;;;;;;6.43;4.18;;;;;;;;;;5073181;28;20544;-71
2021/08/24 07:23:32;;;;;;;7.20;3.70;;;;;;;;;;5075216;28;20180;-70
2021/08/24 07:25:58;;;;;;;10.18;3.95;;;;;;;;;;5072613;28;20432;-71
2021/08/24 07:28:23;;;;;;;5.13;3.80;;;;;;;;;;5073648;28;20180;-69
2021/08/24 07:30:49;;;;;;;6.53;3.92;;;;;;;;;;5069801;28;20974;-69
2021/08/24 07:33:15;;;;;;;8.05;3.72;;;;;;;;;;5069581;28;20569;-69
2021/08/24 07:35:40;;;;;;;7.65;3.67;;;;;;;;;;5069071;28;20598;-70
2021/08/24 07:38:05;;;;;;;5.28;3.80;;;;;;;;;;5070211;28;20185;-70
2021/08/24 07:40:31;;;;;;;6.63;3.72;;;;;;;;;;5071380;28;20197;-69
2021/08/24 07:42:56;;;;;;;10.38;4.70;;;;;;;;;;5068268;28;20181;-69
2021/08/24 07:45:21;;;;;;;6.20;4.00;;;;;;;;;;5071937;28;20196;-68
2021/08/24 07:47:47;;;;;;;6.50;3.72;;;;;;;;;;5070654;28;20250;-69
2021/08/24 07:50:13;;;;;;;6.13;3.40;;;;;;;;;;5072950;28;20185;-69
2021/08/24 07:52:38;;;;;;;6.95;3.92;;;;;;;;;;5069360;28;20276;-69
2021/08/24 07:55:04;;;;;;;6.03;3.40;;;;;;;;;;5073089;28;20196;-69
2021/08/24 07:57:29;;;;;;;6.38;3.78;;;;;;;;;;5068935;28;20468;-70
2021/08/24 07:59:54;;;;;;;7.88;4.18;;;;;;;;;;5071928;28;20169;-69
2021/08/24 08:02:19;;;;;;;6.73;4.00;;;;;;;;;;5071856;28;20625;-71
2021/08/24 08:04:45;;;;;;;5.10;3.80;;;;;;;;;;5070560;28;20422;-72
2021/08/24 08:07:10;;;;;;;6.50;4.22;;;;;;;;;;5070878;28;20521;-69
2021/08/24 08:09:36;;;;;;;6.95;3.97;;;;;;;;;;5068833;28;20271;-70
2021/08/24 08:12:01;;;;;;;6.55;3.80;;;;;;;;;;5068494;28;20207;-70
2021/08/24 08:14:27;;;;;;;8.80;3.72;;;;;;;;;;5070601;28;20210;-69
2021/08/24 08:16:52;;;;;;;6.10;3.72;;;;;;;;;;5045137;28;20184;-69
2021/08/24 08:19:17;;;;;;;7.77;4.07;;;;;;;;;;5064040;28;20254;-69
2021/08/24 08:21:42;;;;;;;5.67;3.53;;;;;;;;;;5063879;28;20438;-69
2021/08/24 08:24:08;;;;;;;5.73;3.57;;;;;;;;;;5065899;28;20916;-69
2021/08/24 08:26:34;;;;;;;5.20;3.55;;;;;;;;;;5068409;28;20398;-69
2021/08/24 08:29:03;;;;;;;5.70;3.60;;;;;;;;;;5068976;28;20555;-69
2021/08/24 08:31:29;;;;;;;5.25;3.30;;;;;;;;;;5086414;22;20320;-69
2021/08/24 08:33:54;;;;;;;5.78;3.50;;;;;;;;;;5063628;28;20280;-69
2021/08/24 08:36:19;;;;;;;6.70;3.60;;;;;;;;;;5069344;28;20201;-68
2021/08/24 08:38:44;;;;;;;6.30;3.90;;;;;;;;;;5068625;28;20448;-68
2021/08/24 08:41:10;;;;;;;4.30;3.67;;;;;;;;;;5067864;28;20424;-68
2021/08/24 08:43:41;;;;;;;6.63;2.80;;;;;;;;;;5042604;28;20522;-68
2021/08/24 08:46:21;;;;;;;5.03;3.58;;;;;;;;;;5042814;28;20181;-69
2021/08/24 08:48:49;;;;;;;7.85;3.40;;;;;;;;;;5044546;28;20178;-69
2021/08/24 08:51:20;;;;;;;4.75;3.33;;;;;;;;;;5044433;28;20205;-68
2021/08/24 08:54:04;;;;;;;4.32;3.10;;;;;;;;;;5042393;28;20205;-69
2021/08/24 08:56:38;;;;;;;7.68;3.90;;;;;;;;;;5042485;28;20178;-69
2021/08/24 08:59:33;;;;;;;5.57;3.28;;;;;;;;;;5037931;28;20669;-69
2021/08/24 09:02:17;;;;;;;5.55;2.50;;;;;;;;;;5032619;28;20229;-69
2021/08/24 09:04:44;;;;;;;3.65;2.50;;;;;;;;;;5040278;28;20473;-70
2021/08/24 09:07:14;;;;;;;6.72;2.78;;;;;;;;;;5026164;28;20179;-69
2021/08/24 09:09:39;;;;;;;6.65;3.17;;;;;;;;;;5040097;28;20209;-69
2021/08/24 09:12:06;;;;;;;4.10;3.15;;;;;;;;;;5045360;28;20671;-69
2021/08/24 09:14:40;;;;;;;7.57;3.22;;;;;;;;;;5046137;28;20227;-69
2021/08/24 09:17:13;;;;;;;8.32;3.13;;;;;;;;;;5046509;28;20181;-68
2021/08/24 09:19:38;;;;;;;8.88;3.30;;;;;;;;;;5048216;28;20181;-69
2021/08/24 09:22:04;;;;;;;6.03;3.00;;;;;;;;;;5047729;28;20201;-69
2021/08/24 09:24:31;;;;;;;6.35;2.50;;;;;;;;;;5048424;28;20893;-68
2021/08/24 09:27:06;;;;;;;5.75;3.67;;;;;;;;;;5029888;28;20208;-69
2021/08/24 09:29:33;;;;;;;7.65;3.45;;;;;;;;;;5022300;28;20763;-68
2021/08/24 09:32:00;;;;;;;4.03;2.47;;;;;;;;;;5043207;28;20213;-69
2021/08/24 09:34:27;;;;;;;4.20;2.92;;;;;;;;;;5048970;28;20216;-68
2021/08/24 09:36:52;;;;;;;6.03;2.83;;;;;;;;;;5042474;28;20192;-68
2021/08/24 09:39:37;;;;;;;6.55;3.20;;;;;;;;;;5043705;28;20181;-71
2021/08/24 09:42:06;;;;;;;4.10;2.67;;;;;;;;;;5042238;28;20737;-68
2021/08/24 09:44:34;;;;;;;5.15;2.95;;;;;;;;;;5041421;28;20173;-68
2021/08/24 09:47:04;;;;;;;4.22;2.40;;;;;;;;;;5038540;28;20185;-68
2021/08/24 09:49:37;;;;;;;6.32;2.30;;;;;;;;;;5045557;28;20583;-68
2021/08/24 09:52:02;;;;;;;3.35;1.80;;;;;;;;;;5040827;28;20212;-73
2021/08/24 09:54:49;;;;;;;3.95;2.38;;;;;;;;;;5042833;28;20166;-68
2021/08/24 09:57:17;;;;;;;4.70;2.00;;;;;;;;;;5043605;28;20177;-68
2021/08/24 09:59:47;;;;;;;4.35;2.10;;;;;;;;;;5046221;28;20181;-68
2021/08/24 10:02:31;;;;;;;5.53;1.98;;;;;;;;;;5048455;28;20225;-67
2021/08/24 10:04:56;;;;;;;3.63;1.75;;;;;;;;;;5038077;28;20186;-68
2021/08/24 10:07:32;;;;;;;5.03;1.83;;;;;;;;;;5013706;28;20185;-69
2021/08/24 10:09:58;;;;;;;3.70;1.75;;;;;;;;;;5038717;28;20186;-69
2021/08/24 10:12:26;;;;;;;4.50;1.70;;;;;;;;;;5041857;28;20570;-69
2021/08/24 10:14:52;;;;;;;7.03;1.90;;;;;;;;;;5024707;28;20568;-70
2021/08/24 10:17:26;;;;;;;6.10;1.63;;;;;;;;;;5040979;28;20242;-68
2021/08/24 10:19:52;;;;;;;3.13;1.58;;;;;;;;;;5042788;28;20203;-69
2021/08/24 10:22:37;;;;;;;3.72;2.03;;;;;;;;;;5031446;28;20683;-69
2021/08/24 10:25:09;;;;;;;3.10;1.65;;;;;;;;;;5051854;28;20265;-70
2021/08/24 10:27:53;;;;;;;2.30;1.50;;;;;;;;;;5029480;28;20216;-70
2021/08/24 10:30:36;;;;;;;3.58;2.10;;;;;;;;;;5045627;28;20231;-69
2021/08/24 10:33:01;;;;;;;3.60;1.90;;;;;;;;;;5050701;28;20209;-68
2021/08/24 10:35:30;;;;;;;4.68;1.80;;;;;;;;;;5048764;28;20223;-69
2021/08/24 10:37:56;;;;;;;4.22;1.58;;;;;;;;;;5043488;28;20205;-69
2021/08/24 10:40:28;;;;;;;3.50;1.80;;;;;;;;;;5042217;28;20182;-68
2021/08/24 10:43:01;;;;;;;3.60;1.50;;;;;;;;;;5051770;28;20209;-68
2021/08/24 10:45:28;;;;;;;3.10;1.80;;;;;;;;;;5045644;28;20220;-69
2021/08/24 10:48:03;;;;;;;2.47;1.70;;;;;;;;;;5054158;28;20192;-69
2021/08/24 10:50:47;;;;;;;2.53;1.58;;;;;;;;;;5046048;28;20191;-68
2021/08/24 10:53:32;;;;;;;2.40;1.50;;;;;;;;;;5040900;28;20216;-68
2021/08/24 10:56:13;;;;;;;4.30;1.95;;;;;;;;;;5054680;28;20252;-68
2021/08/24 10:58:43;;;;;;;2.47;1.40;;;;;;;;;;5048336;28;20201;-69
2021/08/24 11:01:27;;;;;;;5.72;1.92;;;;;;;;;;5047370;28;20641;-69
2021/08/24 11:03:55;;;;;;;3.90;1.52;;;;;;;;;;5049617;28;20201;-67
2021/08/24 11:06:32;;;;;;;2.75;1.73;;;;;;;;;;5046151;28;20185;-68
2021/08/24 11:09:06;;;;;;;3.28;2.00;;;;;;;;;;5050173;28;20181;-68
2021/08/24 11:11:45;;;;;;;5.57;2.38;;;;;;;;;;5048544;28;20349;-69
2021/08/24 11:14:32;;;;;;;4.57;1.80;;;;;;;;;;5048814;28;20178;-68
2021/08/24 11:17:16;;;;;;;2.63;1.30;;;;;;;;;;5047718;28;20725;-68
2021/08/24 11:19:56;;;;;;;5.20;1.67;;;;;;;;;;5050302;28;20182;-68
2021/08/24 11:22:36;;;;;;;4.07;1.92;;;;;;;;;;5043975;28;20201;-67
2021/08/24 11:25:04;;;;;;;4.78;1.90;;;;;;;;;;5053881;28;20238;-69
2021/08/24 11:27:48;;;;;;;3.88;1.70;;;;;;;;;;5049489;28;20551;-68
2021/08/24 11:30:19;;;;;;;3.40;1.60;;;;;;;;;;5045087;28;20177;-68
2021/08/24 11:32:46;;;;;;;2.90;1.70;;;;;;;;;;5043595;28;20291;-68
2021/08/24 11:35:13;;;;;;;3.35;1.90;;;;;;;;;;5040462;28;20228;-68
2021/08/24 11:37:45;;;;;;;8.30;3.20;;;;;;;;;;5044870;28;20230;-68
2021/08/24 11:40:14;;;;;;;3.22;1.75;;;;;;;;;;5041864;28;20169;-67
2021/08/24 11:42:44;;;;;;;3.22;1.60;;;;;;;;;;5041810;28;20206;-69
2021/08/24 11:45:16;;;;;;;3.35;1.30;;;;;;;;;;5047113;28;20250;-69
2021/08/24 11:47:51;;;;;;;3.97;1.55;;;;;;;;;;5051389;28;20192;-68
2021/08/24 11:50:19;;;;;;;3.20;1.75;;;;;;;;;;5045717;28;20268;-68
2021/08/24 11:52:48;;;;;;;2.80;1.20;;;;;;;;;;5040223;28;20208;-68
2021/08/24 11:55:23;;;;;;;4.32;1.67;;;;;;;;;;5041439;28;20184;-68
2021/08/24 11:57:53;;;;;;;3.33;1.50;;;;;;;;;;5047683;28;20189;-68
2021/08/24 12:00:18;;;;;;;5.22;1.70;;;;;;;;;;5053629;28;20170;-68
2021/08/24 12:02:45;;;;;;;3.92;1.50;;;;;;;;;;5050264;28;20193;-68
2021/08/24 12:05:22;;;;;;;4.68;1.50;;;;;;;;;;5044439;28;20174;-68
2021/08/24 12:08:01;;;;;;;4.95;1.60;;;;;;;;;;5050888;28;20214;-68
2021/08/24 12:10:26;;;;;;;4.03;1.45;;;;;;;;;;5044729;28;20174;-68
2021/08/24 12:12:53;;;;;;;6.53;2.60;;;;;;;;;;5030596;28;20831;-69
2021/08/24 12:15:33;;;;;;;1.88;1.13;;;;;;;;;;5052026;28;20436;-68
2021/08/24 12:18:19;;;;;;;1.88;1.23;;;;;;;;;;5047344;28;20184;-67
2021/08/24 12:20:50;;;;;;;4.93;1.48;;;;;;;;;;5033118;28;20186;-68
2021/08/24 12:23:35;;;;;;;2.42;1.30;;;;;;;;;;5026495;28;20618;-68
2021/08/24 12:26:19;;;;;;;3.50;1.38;;;;;;;;;;5041064;28;20583;-68
2021/08/24 12:28:44;;;;;;;4.22;1.63;;;;;;;;;;5043903;28;20207;-68
2021/08/24 12:31:11;;;;;;;3.30;1.20;;;;;;;;;;5047671;28;20205;-68
2021/08/24 12:33:43;;;;;;;2.75;1.20;;;;;;;;;;5046746;28;20466;-68
2021/08/24 12:36:24;;;;;;;3.88;1.60;;;;;;;;;;5045825;28;20248;-68
2021/08/24 12:38:49;;;;;;;3.38;1.63;;;;;;;;;;5046097;28;20551;-68
2021/08/24 12:41:33;;;;;;;3.03;1.40;;;;;;;;;;5047084;28;20185;-68
2021/08/24 12:44:25;;;;;;;4.95;1.90;;;;;;;;;;5036117;28;20182;-68
2021/08/24 12:46:51;;;;;;;2.25;1.58;;;;;;;;;;5034726;28;20217;-68
2021/08/24 12:49:20;;;;;;;2.80;1.27;;;;;;;;;;5037660;28;20193;-68
2021/08/24 12:51:52;;;;;;;1.50;1.10;;;;;;;;;;5049723;28;20197;-68
2021/08/24 12:54:19;;;;;;;1.92;1.20;;;;;;;;;;5044440;28;20181;-68
2021/08/24 12:56:45;;;;;;;2.92;1.30;;;;;;;;;;5043306;28;20239;-68
2021/08/24 12:59:26;;;;;;;2.05;1.20;;;;;;;;;;5039055;28;20177;-68
2021/08/24 13:02:07;;;;;;;2.42;1.17;;;;;;;;;;5043371;28;20202;-69
2021/08/24 13:04:34;;;;;;;1.70;1.25;;;;;;;;;;5044068;28;20201;-69
2021/08/24 13:07:14;;;;;;;2.38;1.38;;;;;;;;;;5039694;28;20178;-69
2021/08/24 13:09:41;;;;;;;3.83;1.88;;;;;;;;;;5045725;28;20173;-68
2021/08/24 13:12:12;;;;;;;2.78;1.50;;;;;;;;;;5046757;28;20223;-68
2021/08/24 13:14:42;;;;;;;1.70;1.60;;;;;;;;;;5040862;28;20703;-68
2021/08/24 13:17:13;;;;;;;3.55;1.85;;;;;;;;;;5041673;28;20278;-69
2021/08/24 13:19:39;;;;;;;1.70;1.50;;;;;;;;;;5044909;28;20174;-68
2021/08/24 13:22:07;;;;;;;3.25;1.83;;;;;;;;;;5043439;28;20206;-68
2021/08/24 13:24:36;;;;;;;5.13;1.90;;;;;;;;;;5047175;28;20272;-68
2021/08/24 13:27:16;;;;;;;4.18;2.03;;;;;;;;;;5040813;28;20639;-69
2021/08/24 13:29:42;;;;;;;2.72;1.65;;;;;;;;;;5035295;28;20210;-69
2021/08/24 13:32:26;;;;;;;3.08;1.80;;;;;;;;;;5023461;28;20594;-69
2021/08/24 13:34:56;;;;;;;3.42;2.03;;;;;;;;;;5048845;28;20555;-69
2021/08/24 13:37:36;;;;;;;5.72;1.90;;;;;;;;;;5046588;28;20174;-68
2021/08/24 13:40:06;;;;;;;4.20;1.80;;;;;;;;;;5038295;28;20189;-69
2021/08/24 13:42:37;;;;;;;4.20;1.85;;;;;;;;;;5041568;28;20205;-69
2021/08/24 13:45:04;;;;;;;3.38;1.65;;;;;;;;;;5044525;28;20192;-69
2021/08/24 13:47:29;;;;;;;3.65;2.00;;;;;;;;;;5047645;28;20213;-68
2021/08/24 13:49:57;;;;;;;3.53;1.90;;;;;;;;;;5042522;28;20703;-68
2021/08/24 13:52:27;;;;;;;1.73;1.35;;;;;;;;;;5050736;28;20285;-69
2021/08/24 13:54:54;;;;;;;1.55;1.23;;;;;;;;;;5039103;28;20277;-71
2021/08/24 13:57:23;;;;;;;3.53;1.48;;;;;;;;;;5045494;28;20220;-68
2021/08/24 13:59:57;;;;;;;2.80;1.30;;;;;;;;;;5048210;28;20178;-69
2021/08/24 14:02:25;;;;;;;2.97;1.40;;;;;;;;;;5049722;28;20288;-69
2021/08/24 14:04:51;;;;;;;2.53;1.80;;;;;;;;;;5045546;28;20189;-68
2021/08/24 14:07:27;;;;;;;3.30;1.65;;;;;;;;;;5039704;28;20292;-69
2021/08/24 14:10:04;;;;;;;4.63;1.88;;;;;;;;;;5051475;28;20272;-69
2021/08/24 14:12:31;;;;;;;4.40;1.90;;;;;;;;;;5042818;28;20209;-69
2021/08/24 14:15:00;;;;;;;3.65;1.60;;;;;;;;;;5050821;28;20670;-68
2021/08/24 14:17:31;;;;;;;2.67;1.52;;;;;;;;;;5036213;28;20177;-69
2021/08/24 14:19:57;;;;;;;2.00;1.50;;;;;;;;;;5032794;28;20236;-69
2021/08/24 14:22:24;;;;;;;4.07;1.55;;;;;;;;;;5040531;28;20201;-69
2021/08/24 14:24:49;;;;;;;2.70;1.70;;;;;;;;;;5042010;28;20182;-68
2021/08/24 14:27:16;;;;;;;3.35;1.50;;;;;;;;;;5044073;28;20207;-69
2021/08/24 14:29:41;;;;;;;2.03;1.48;;;;;;;;;;5042296;28;20576;-69
2021/08/24 14:32:11;;;;;;;5.03;1.48;;;;;;;;;;5063931;22;20237;-69
2021/08/24 14:34:38;;;;;;;5.85;1.63;;;;;;;;;;5061862;28;20255;-68
2021/08/24 14:37:05;;;;;;;4.65;1.83;;;;;;;;;;5069169;28;20169;-69
2021/08/24 14:39:32;;;;;;;3.97;1.55;;;;;;;;;;5066063;28;20419;-69
2021/08/24 14:42:00;;;;;;;3.97;1.92;;;;;;;;;;5067310;28;20204;-71
2021/08/24 14:44:27;;;;;;;4.00;2.13;;;;;;;;;;5070546;28;20581;-69
2021/08/24 14:46:54;;;;;;;5.68;1.83;;;;;;;;;;5068593;28;20181;-69
2021/08/24 14:49:26;;;;;;;2.53;1.40;;;;;;;;;;5069216;28;20168;-71
2021/08/24 14:51:52;;;;;;;2.90;1.75;;;;;;;;;;5069744;28;20197;-69